createdAt,value
2022-09-05T00:03:06.792Z,100687.66
2022-09-05T00:06:10.398Z,100687.31
2022-09-05T00:09:18.896Z,100688.38
2022-09-05T00:12:23.246Z,100681.25
2022-09-05T00:15:36.286Z,100675.06
2022-09-05T00:24:25.765Z,100676.44
2022-09-05T00:24:33.004Z,100683.22
2022-09-05T00:26:05.560Z,100673.19
2022-09-05T00:29:20.364Z,100678.34
2022-09-05T00:32:59.071Z,100678.81
2022-09-05T00:36:20.097Z,100676.75
2022-09-05T00:39:25.669Z,100677.91
2022-09-05T00:42:27.471Z,100676.16
2022-09-05T00:45:35.338Z,100679.69
2022-09-05T00:48:46.368Z,100675.34
2022-09-05T00:51:54.280Z,100673.66
2022-09-05T00:55:10.749Z,100674.97
2022-09-05T00:58:34.096Z,100668.75
2022-09-05T01:01:41.936Z,100659.03
2022-09-05T01:04:51.662Z,100655.91
2022-09-05T01:08:13.075Z,100658.72
2022-09-05T01:11:28.637Z,100654.91
2022-09-05T01:14:43.903Z,100655.59
2022-09-05T01:18:00.293Z,100659.72
2022-09-05T01:21:21.120Z,100645.88
2022-09-05T01:24:40.924Z,100659.41
2022-09-05T01:29:14.555Z,100652.34
2022-09-05T01:31:26.423Z,100650.75
2022-09-05T01:34:37.238Z,100653.81
2022-09-05T01:37:45.165Z,100653.25
2022-09-05T01:41:18.814Z,100658.25
2022-09-05T01:44:30.395Z,100647.41
2022-09-05T01:47:46.645Z,100652.44
2022-09-05T01:50:59.854Z,100643.66
2022-09-05T01:54:25.082Z,100636.28
2022-09-05T01:57:40.100Z,100635.63
2022-09-05T02:00:55.761Z,100626.50
2022-09-05T02:04:34.573Z,100628.72
2022-09-05T02:08:09.586Z,100618.22
2022-09-05T02:11:12.442Z,100626.88
2022-09-05T02:14:33.822Z,100630.78
2022-09-05T02:17:51.795Z,100634.69
2022-09-05T02:20:56.926Z,100638.38
2022-09-05T02:24:09.851Z,100640.56
2022-09-05T02:27:47.561Z,100631.22
2022-09-05T02:31:18.915Z,100634.84
2022-09-05T02:34:22.846Z,100630.19
2022-09-05T02:39:24.060Z,100637.03
2022-09-05T02:45:18.725Z,100635.75
2022-09-05T02:45:24.051Z,100638.41
2022-09-05T02:47:58.067Z,100639.53
2022-09-05T02:57:27.444Z,100643.38
2022-09-05T02:57:38.162Z,100643.34
2022-09-05T02:58:20.547Z,100646.25
2022-09-05T03:01:36.530Z,100641.84
2022-09-05T03:04:47.421Z,100649.13
2022-09-05T03:08:13.293Z,100637.81
2022-09-05T03:12:27.146Z,100655.00
2022-09-05T03:15:59.334Z,100660.66
2022-09-05T03:19:47.012Z,100667.69
2022-09-05T03:23:50.299Z,100665.03
2022-09-05T03:27:20.394Z,100666.66
2022-09-05T03:30:42.470Z,100665.50
2022-09-05T03:34:00.113Z,100656.13
2022-09-05T03:37:44.400Z,100658.69
2022-09-05T03:41:06.825Z,100659.38
2022-09-05T03:44:32.357Z,100668.59
2022-09-05T03:47:53.991Z,100674.34
2022-09-05T03:57:12.568Z,100661.69
2022-09-05T03:57:13.502Z,100666.16
2022-09-05T03:58:57.964Z,100667.91
2022-09-05T04:04:28.839Z,100671.47
2022-09-05T04:08:18.262Z,100668.56
2022-09-05T04:09:03.672Z,100669.56
2022-09-05T04:12:16.198Z,100669.38
2022-09-05T04:15:31.037Z,100669.91
2022-09-05T04:18:39.188Z,100676.94
2022-09-05T04:21:47.036Z,100678.78
2022-09-05T04:24:57.362Z,100680.44
2022-09-05T04:28:19.504Z,100683.88
2022-09-05T04:31:30.919Z,100681.28
2022-09-05T04:34:45.063Z,100678.75
2022-09-05T04:37:55.288Z,100683.53
2022-09-05T04:41:00.510Z,100681.44
2022-09-05T04:44:08.495Z,100675.81
2022-09-05T04:47:16.285Z,100673.34
2022-09-05T04:50:23.623Z,100671.16
2022-09-05T04:53:47.905Z,100683.53
2022-09-05T04:56:54.956Z,100683.09
2022-09-05T05:05:23.673Z,100693.00
2022-09-05T05:06:16.122Z,100691.72
2022-09-05T05:07:06.117Z,100695.00
2022-09-05T05:13:28.277Z,100695.78
2022-09-05T05:17:57.804Z,100701.81
2022-09-05T05:18:07.037Z,100702.94
2022-09-05T05:20:44.050Z,100707.63
2022-09-05T05:23:50.920Z,100709.59
2022-09-05T05:27:00.198Z,100714.56
2022-09-05T05:30:04.825Z,100717.81
2022-09-05T05:33:18.991Z,100708.94
2022-09-05T05:36:25.668Z,100711.69
2022-09-05T05:39:29.202Z,100713.53
2022-09-05T05:42:31.671Z,100702.78
2022-09-05T05:45:33.972Z,100707.09
2022-09-05T05:48:38.411Z,100707.78
2022-09-05T05:52:02.647Z,100708.91
2022-09-05T05:55:50.573Z,100721.16
2022-09-05T05:59:08.559Z,100730.16
2022-09-05T06:03:13.620Z,100730.38
2022-09-05T06:06:36.782Z,100734.44
2022-09-05T06:14:51.552Z,100737.66
2022-09-05T06:14:57.621Z,100741.78
2022-09-05T06:17:44.323Z,100750.41
2022-09-05T06:22:05.954Z,100742.91
2022-09-05T06:25:16.430Z,100743.75
2022-09-05T06:28:30.533Z,100739.03
2022-09-05T06:31:44.853Z,100744.09
2022-09-05T06:35:07.776Z,100741.13
2022-09-05T06:38:22.019Z,100740.31
2022-09-05T06:41:36.799Z,100744.91
2022-09-05T06:44:55.785Z,100749.63
2022-09-05T06:48:14.484Z,100754.56
2022-09-05T06:51:49.765Z,100749.81
2022-09-05T06:55:33.993Z,100750.44
2022-09-05T06:59:15.254Z,100749.53
2022-09-05T07:02:46.384Z,100746.41
2022-09-05T07:05:55.735Z,100744.50
2022-09-05T07:09:05.644Z,100749.63
2022-09-05T07:12:18.193Z,100753.81
2022-09-05T07:15:35.086Z,100748.66
2022-09-05T07:18:45.414Z,100750.94
2022-09-05T07:21:58.933Z,100752.88
2022-09-05T07:25:06.492Z,100752.50
2022-09-05T07:28:28.175Z,100762.47
2022-09-05T07:31:37.511Z,100761.97
2022-09-05T07:34:45.812Z,100772.91
2022-09-05T07:37:56.698Z,100775.34
2022-09-05T07:41:04.056Z,100773.63
2022-09-05T07:44:10.901Z,100768.38
2022-09-05T07:47:20.546Z,100770.72
2022-09-05T07:52:09.404Z,100775.94
2022-09-05T07:57:01.035Z,100780.13
2022-09-05T07:57:25.519Z,100776.22
2022-09-05T08:00:31.155Z,100773.44
2022-09-05T08:03:33.919Z,100775.50
2022-09-05T08:07:49.562Z,100766.94
2022-09-05T08:10:09.221Z,100767.94
2022-09-05T08:13:23.773Z,100775.06
2022-09-05T08:16:28.762Z,100774.19
2022-09-05T08:19:40.539Z,100774.97
2022-09-05T08:22:52.200Z,100774.81
2022-09-05T08:25:59.952Z,100778.34
2022-09-05T08:29:11.150Z,100771.91
2022-09-05T08:32:15.942Z,100770.09
2022-09-05T08:35:26.603Z,100763.91
2022-09-05T08:38:37.437Z,100759.78
2022-09-05T08:42:03.487Z,100749.13
2022-09-05T08:46:40.995Z,100754.94
2022-09-05T08:49:11.253Z,100757.09
2022-09-05T08:52:24.289Z,100748.53
2022-09-05T08:55:39.461Z,100753.31
2022-09-05T08:59:28.335Z,100746.19
2022-09-05T09:02:50.743Z,100749.63
2022-09-05T09:06:18.056Z,100755.72
2022-09-05T09:09:34.265Z,100748.47
2022-09-05T09:13:03.768Z,100744.78
2022-09-05T09:16:10.947Z,100747.03
2022-09-05T09:19:29.440Z,100745.78
2022-09-05T09:22:39.950Z,100753.84
2022-09-05T09:25:49.167Z,100750.94
2022-09-05T09:28:57.668Z,100749.91
2022-09-05T09:32:04.751Z,100746.56
2022-09-05T09:35:14.813Z,100745.59
2022-09-05T09:38:26.404Z,100730.94
2022-09-05T09:41:45.264Z,100744.25
2022-09-05T09:45:22.750Z,100739.59
2022-09-05T09:48:53.112Z,100733.59
2022-09-05T09:52:20.991Z,100742.06
2022-09-05T09:55:59.911Z,100738.47
2022-09-05T09:59:22.492Z,100729.56
2022-09-05T10:05:47.610Z,100726.53
2022-09-05T10:10:51.623Z,100719.00
2022-09-05T10:10:58.569Z,100732.34
2022-09-05T10:14:49.672Z,100723.16
2022-09-05T10:18:25.514Z,100721.50
2022-09-05T10:21:39.677Z,100711.66
2022-09-05T10:25:19.635Z,100707.25
2022-09-05T10:28:31.693Z,100709.63
2022-09-05T10:34:23.413Z,100702.09
2022-09-05T10:35:25.962Z,100696.00
2022-09-05T10:38:36.095Z,100689.50
2022-09-05T10:41:51.657Z,100695.00
2022-09-05T10:44:55.309Z,100688.63
2022-09-05T10:48:13.321Z,100675.53
2022-09-05T10:51:27.809Z,100673.78
2022-09-05T10:54:38.045Z,100660.47
2022-09-05T10:57:53.465Z,100655.53
2022-09-05T11:02:19.413Z,100655.78
2022-09-05T11:04:49.730Z,100657.81
2022-09-05T11:08:02.850Z,100651.16
2022-09-05T11:11:26.082Z,100656.72
2022-09-05T11:14:49.305Z,100648.53
2022-09-05T11:17:57.927Z,100649.69
2022-09-05T11:21:08.379Z,100650.41
2022-09-05T11:24:27.419Z,100652.56
2022-09-05T11:27:34.464Z,100641.19
2022-09-05T11:30:40.657Z,100640.91
2022-09-05T11:39:52.354Z,100638.75
2022-09-05T11:40:06.813Z,100636.88
2022-09-05T11:41:38.740Z,100631.66
2022-09-05T11:44:53.752Z,100634.94
2022-09-05T11:48:22.717Z,100623.31
2022-09-05T11:51:48.495Z,100618.13
2022-09-05T11:55:24.789Z,100612.41
2022-09-05T11:58:55.506Z,100614.53
2022-09-05T12:02:23.267Z,100603.50
2022-09-05T12:05:48.410Z,100602.00
2022-09-05T12:08:59.910Z,100597.69
2022-09-05T12:12:39.392Z,100597.19
2022-09-05T12:16:07.309Z,100600.59
2022-09-05T12:19:23.039Z,100592.25
2022-09-05T12:22:29.161Z,100589.09
2022-09-05T12:27:39.352Z,100588.25
2022-09-05T12:36:01.334Z,100587.09
2022-09-05T12:40:40.570Z,100576.22
2022-09-05T12:40:55.409Z,100569.63
2022-09-05T12:41:41.810Z,100583.97
2022-09-05T12:44:38.344Z,100583.63
2022-09-05T12:46:35.642Z,100571.38
2022-09-05T12:49:52.187Z,100572.25
2022-09-05T12:53:01.893Z,100561.19
2022-09-05T12:58:09.105Z,100551.34
2022-09-05T13:03:03.545Z,100546.81
2022-09-05T13:03:26.812Z,100543.28
2022-09-05T13:06:25.993Z,100550.50
2022-09-05T13:10:48.903Z,100541.94
2022-09-05T13:14:55.028Z,100553.94
2022-09-05T13:16:25.837Z,100546.34
2022-09-05T13:19:34.321Z,100554.25
2022-09-05T13:22:40.118Z,100547.00
2022-09-05T13:25:58.336Z,100552.81
2022-09-05T13:29:10.616Z,100540.72
2022-09-05T13:38:10.811Z,100544.00
2022-09-05T13:38:10.926Z,100534.09
2022-09-05T13:39:32.855Z,100548.34
2022-09-05T13:42:39.769Z,100538.00
2022-09-05T13:46:11.453Z,100529.34
2022-09-05T13:49:26.657Z,100531.81
2022-09-05T13:52:35.645Z,100523.88
2022-09-05T13:55:44.205Z,100524.53
2022-09-05T13:58:57.181Z,100527.28
2022-09-05T14:02:27.935Z,100515.66
2022-09-05T14:05:37.460Z,100518.16
2022-09-05T14:12:38.715Z,100507.59
2022-09-05T14:15:52.237Z,100504.56
2022-09-05T14:19:14.381Z,100509.72
2022-09-05T14:22:35.519Z,100510.94
2022-09-05T14:25:39.987Z,100502.72
2022-09-05T14:28:50.184Z,100501.38
2022-09-05T14:37:37.484Z,100489.38
2022-09-05T14:37:49.608Z,100498.16
2022-09-05T14:39:51.948Z,100487.03
2022-09-05T14:43:17.511Z,100481.53
2022-09-05T14:46:51.027Z,100487.03
2022-09-05T14:50:06.044Z,100484.38
2022-09-05T14:58:03.359Z,100485.97
2022-09-05T15:02:44.573Z,100489.41
2022-09-05T15:07:16.700Z,100477.81
2022-09-05T15:12:14.553Z,100478.72
2022-09-05T15:14:01.400Z,100470.78
2022-09-05T15:17:05.719Z,100468.16
2022-09-05T15:20:09.700Z,100465.41
2022-09-05T15:23:28.597Z,100472.28
2022-09-05T15:26:31.615Z,100461.66
2022-09-05T15:29:35.228Z,100453.03
2022-09-05T15:32:38.874Z,100447.72
2022-09-05T15:35:44.066Z,100441.13
2022-09-05T15:38:55.957Z,100438.56
2022-09-05T15:42:12.828Z,100430.31
2022-09-05T15:45:20.645Z,100435.69
2022-09-05T15:48:26.157Z,100434.38
2022-09-05T15:51:42.464Z,100426.34
2022-09-05T15:54:49.626Z,100421.94
2022-09-05T15:57:53.911Z,100420.41
2022-09-05T16:00:55.733Z,100413.31
2022-09-05T16:10:27.037Z,100414.09
2022-09-05T16:10:42.219Z,100424.13
2022-09-05T16:11:20.308Z,100418.91
2022-09-05T16:14:13.355Z,100419.22
2022-09-05T16:23:13.191Z,100418.22
2022-09-05T16:23:34.728Z,100414.25
2022-09-05T16:24:24.823Z,100396.19
2022-09-05T16:28:00.170Z,100403.53
2022-09-05T16:31:05.037Z,100397.50
2022-09-05T16:34:19.914Z,100394.03
2022-09-05T16:37:29.143Z,100388.50
2022-09-05T16:40:38.299Z,100395.75
2022-09-05T16:43:44.477Z,100390.09
2022-09-05T16:47:02.486Z,100384.63
2022-09-05T16:50:16.605Z,100385.13
2022-09-05T16:53:30.608Z,100372.34
2022-09-05T16:56:38.994Z,100373.06
2022-09-05T16:59:45.625Z,100377.63
2022-09-05T17:02:53.799Z,100382.34
2022-09-05T17:06:05.594Z,100386.50
2022-09-05T17:09:19.599Z,100374.34
2022-09-05T17:12:26.663Z,100369.47
2022-09-05T17:15:35.300Z,100366.97
2022-09-05T17:18:38.993Z,100371.34
2022-09-05T17:24:46.472Z,100361.75
2022-09-05T17:29:25.248Z,100359.41
2022-09-05T17:29:29.472Z,100351.88
2022-09-05T17:32:19.050Z,100363.19
2022-09-05T17:35:42.279Z,100359.63
2022-09-05T17:39:05.881Z,100353.97
2022-09-05T17:42:28.745Z,100355.28
2022-09-05T17:45:45.263Z,100357.72
2022-09-05T17:49:18.118Z,100357.63
2022-09-05T17:52:23.230Z,100355.09
2022-09-05T17:55:51.903Z,100353.56
2022-09-05T17:59:05.879Z,100358.59
2022-09-05T18:02:31.940Z,100355.66
2022-09-05T18:06:00.952Z,100355.72
2022-09-05T18:09:08.949Z,100352.88
2022-09-05T18:12:31.564Z,100361.16
2022-09-05T18:16:10.451Z,100357.72
2022-09-05T18:20:00.143Z,100367.28
2022-09-05T18:23:43.706Z,100364.44
2022-09-05T18:30:24.925Z,100376.91
2022-09-05T18:33:55.997Z,100372.34
2022-09-05T18:36:51.385Z,100374.28
2022-09-05T18:40:03.898Z,100381.88
2022-09-05T18:43:14.121Z,100392.03
2022-09-05T18:46:21.040Z,100389.88
2022-09-05T18:50:24.604Z,100389.47
2022-09-05T18:53:10.229Z,100391.00
2022-09-05T18:56:30.992Z,100392.91
2022-09-05T18:59:36.247Z,100403.75
2022-09-05T19:02:51.502Z,100395.28
2022-09-05T19:06:36.602Z,100397.53
2022-09-05T19:09:31.563Z,100389.19
2022-09-05T19:12:40.867Z,100388.69
2022-09-05T19:16:02.283Z,100388.50
2022-09-05T19:19:27.680Z,100385.00
2022-09-05T19:23:02.634Z,100383.34
2022-09-05T19:25:56.176Z,100370.06
2022-09-05T19:36:51.850Z,100372.78
2022-09-05T19:37:03.611Z,100370.28
2022-09-05T19:37:05.140Z,100369.41
2022-09-05T19:41:34.667Z,100363.03
2022-09-05T19:47:29.585Z,100369.34
2022-09-05T19:47:45.141Z,100366.97
2022-09-05T19:49:32.803Z,100360.00
2022-09-05T19:52:35.655Z,100363.28
2022-09-05T19:55:41.817Z,100356.66
2022-09-05T19:58:45.748Z,100354.53
2022-09-05T20:01:48.172Z,100346.19
2022-09-05T20:04:53.177Z,100349.13
2022-09-05T20:07:57.378Z,100343.22
2022-09-05T20:11:03.212Z,100337.34
2022-09-05T20:14:18.841Z,100338.72
2022-09-05T20:17:24.120Z,100333.50
2022-09-05T20:20:28.231Z,100335.97
2022-09-05T20:23:31.216Z,100333.44
2022-09-05T20:26:34.395Z,100329.81
2022-09-05T20:29:54.925Z,100332.00
2022-09-05T20:33:05.170Z,100332.59
2022-09-05T20:40:32.393Z,100328.28
2022-09-05T20:43:28.947Z,100335.00
2022-09-05T20:43:36.452Z,100334.66
2022-09-05T20:49:35.186Z,100340.50
2022-09-05T20:54:15.841Z,100335.69
2022-09-05T20:54:22.769Z,100337.53
2022-09-05T20:57:13.514Z,100333.69
2022-09-05T21:00:19.369Z,100340.09
2022-09-05T21:03:27.710Z,100337.25
2022-09-05T21:06:33.428Z,100341.09
2022-09-05T21:09:50.825Z,100348.16
2022-09-05T21:12:55.590Z,100343.47
2022-09-05T21:15:58.770Z,100345.91
2022-09-05T21:19:02.085Z,100354.16
2022-09-05T21:22:06.719Z,100352.66
2022-09-05T21:25:22.556Z,100355.75
2022-09-05T21:28:36.932Z,100356.00
2022-09-05T21:31:44.114Z,100350.72
2022-09-05T21:34:52.017Z,100336.56
2022-09-05T21:37:55.694Z,100336.16
2022-09-05T21:41:01.205Z,100331.38
2022-09-05T21:47:37.649Z,100340.56
2022-09-05T21:47:48.937Z,100334.06
2022-09-05T21:50:51.372Z,100333.56
2022-09-05T21:59:18.157Z,100324.41
2022-09-05T21:59:28.484Z,100318.91
2022-09-05T22:00:42.375Z,100313.06
2022-09-05T22:03:44.550Z,100313.66
2022-09-05T22:06:48.638Z,100323.22
2022-09-05T22:09:50.523Z,100321.22
2022-09-05T22:12:52.385Z,100314.25
2022-09-05T22:15:57.029Z,100307.13
2022-09-05T22:19:00.767Z,100305.50
2022-09-05T22:22:15.504Z,100303.47
2022-09-05T22:25:27.345Z,100296.75
2022-09-05T22:28:33.498Z,100285.72
2022-09-05T22:31:36.509Z,100287.75
2022-09-05T22:34:38.453Z,100290.06
2022-09-05T22:37:44.338Z,100287.91
2022-09-05T22:40:46.144Z,100285.97
2022-09-05T22:43:50.128Z,100285.97
2022-09-05T22:46:52.303Z,100283.59
2022-09-05T22:49:53.980Z,100287.47
2022-09-05T22:52:57.064Z,100287.25
2022-09-05T22:56:02.094Z,100277.03
2022-09-05T22:59:05.124Z,100295.78
2022-09-05T23:02:06.959Z,100300.41
2022-09-05T23:05:09.518Z,100295.44
2022-09-05T23:08:13.164Z,100290.69
2022-09-05T23:11:16.777Z,100286.13
2022-09-05T23:14:18.582Z,100287.88
2022-09-05T23:17:20.313Z,100288.13
2022-09-05T23:20:22.759Z,100289.78
2022-09-05T23:23:25.871Z,100287.28
2022-09-05T23:26:27.655Z,100287.13
2022-09-05T23:29:29.414Z,100285.22
2022-09-05T23:32:31.314Z,100292.06
2022-09-05T23:35:33.156Z,100287.75
2022-09-05T23:38:36.584Z,100293.91
2022-09-05T23:41:38.257Z,100298.69
2022-09-05T23:44:39.924Z,100293.03
2022-09-05T23:47:41.652Z,100295.44
2022-09-05T23:50:43.342Z,100286.53
2022-09-05T23:53:46.730Z,100287.44
2022-09-05T23:56:48.569Z,100292.03
2022-09-05T23:59:52.379Z,100288.53
